RXA3468 YMML-YMER
Flight info
| Callsign | RXA3468 |
|---|---|
| Flight time | 1h 3m |
| Altitude | 21000 |
| Route | CORRS DCT ANGEX DCT UNSIG |
| Aircraft | SF34/M-SDFGR/S |
Departure
| Time | 2026-04-20 06:43 |
|---|---|
| Airport | Melbourne Airport (YMML) |
Arrival
| Time | 2026-04-20 07:47 |
|---|---|
| Airport | Merimbula Airport (YMER) |
| Time | Latitude | Longitude | Altitude | Speed | Heading |
|---|---|---|---|---|---|
| 2026-04-20 06:00 | -37.67643 | 144.84468 | 350 ft | 0 kts | 81° |
| 2026-04-20 06:33 | -37.67643 | 144.84469 | 350 ft | 0 kts | 81° |
| 2026-04-20 06:36 | -37.67644 | 144.84477 | 356 ft | 4 kts | 112° |
| 2026-04-20 06:36 | -37.67671 | 144.84401 | 350 ft | 24 kts | 266° |
| 2026-04-20 06:36 | -37.67604 | 144.84345 | 353 ft | 19 kts | 352° |
| 2026-04-20 06:36 | -37.67398 | 144.84307 | 360 ft | 33 kts | 351° |
| 2026-04-20 06:37 | -37.67188 | 144.84267 | 363 ft | 36 kts | 352° |
| 2026-04-20 06:37 | -37.66959 | 144.84225 | 368 ft | 27 kts | 351° |
| 2026-04-20 06:37 | -37.66738 | 144.84184 | 371 ft | 39 kts | 351° |
| 2026-04-20 06:37 | -37.66511 | 144.84142 | 370 ft | 14 kts | 352° |
| 2026-04-20 06:38 | -37.66419 | 144.84124 | 369 ft | 13 kts | 348° |
| 2026-04-20 06:38 | -37.66369 | 144.84115 | 368 ft | 9 kts | 352° |
| 2026-04-20 06:38 | -37.66245 | 144.84091 | 369 ft | 26 kts | 352° |
| 2026-04-20 06:38 | -37.66024 | 144.84050 | 376 ft | 38 kts | 352° |
| 2026-04-20 06:39 | -37.65736 | 144.83996 | 396 ft | 43 kts | 351° |
| 2026-04-20 06:39 | -37.65584 | 144.83967 | 405 ft | 17 kts | 351° |
| 2026-04-20 06:39 | -37.65435 | 144.83930 | 413 ft | 28 kts | 348° |
| 2026-04-20 06:39 | -37.65319 | 144.83860 | 415 ft | 22 kts | 306° |
| 2026-04-20 06:40 | -37.65303 | 144.83701 | 424 ft | 8 kts | 261° |
| 2026-04-20 06:40 | -37.65314 | 144.83624 | 425 ft | 4 kts | 261° |
| 2026-04-20 06:40 | -37.65314 | 144.83621 | 424 ft | 0 kts | 261° |
| 2026-04-20 06:42 | -37.65341 | 144.83553 | 416 ft | 17 kts | 223° |
| 2026-04-20 06:42 | -37.65525 | 144.83530 | 415 ft | 54 kts | 172° |
| 2026-04-20 06:43 | -37.66154 | 144.83644 | 396 ft | 125 kts | 174° |
| 2026-04-20 06:43 | -37.67134 | 144.83809 | 736 ft | 155 kts | 173° |
| 2026-04-20 06:43 | -37.68288 | 144.84023 | 1153 ft | 178 kts | 173° |
| 2026-04-20 06:43 | -37.69573 | 144.84222 | 1580 ft | 192 kts | 172° |
| 2026-04-20 06:44 | -37.70931 | 144.84455 | 2020 ft | 201 kts | 173° |
| 2026-04-20 06:44 | -37.72338 | 144.84696 | 2447 ft | 207 kts | 173° |
| 2026-04-20 06:44 | -37.73781 | 144.84935 | 2876 ft | 211 kts | 173° |
| 2026-04-20 06:44 | -37.75256 | 144.85184 | 3295 ft | 216 kts | 173° |
| 2026-04-20 06:45 | -37.76736 | 144.85463 | 3713 ft | 219 kts | 173° |
| 2026-04-20 06:45 | -37.78252 | 144.85777 | 4135 ft | 223 kts | 172° |
| 2026-04-20 06:45 | -37.79794 | 144.86127 | 4563 ft | 227 kts | 172° |
| 2026-04-20 06:45 | -37.81305 | 144.86702 | 4978 ft | 231 kts | 152° |
| 2026-04-20 06:46 | -37.82443 | 144.88149 | 5386 ft | 236 kts | 124° |
| 2026-04-20 06:46 | -37.83300 | 144.89933 | 5810 ft | 238 kts | 121° |
| 2026-04-20 06:46 | -37.84124 | 144.91750 | 6238 ft | 238 kts | 118° |
| 2026-04-20 06:46 | -37.84683 | 144.93730 | 6659 ft | 241 kts | 105° |
| 2026-04-20 06:47 | -37.85057 | 144.95800 | 7059 ft | 242 kts | 101° |
| 2026-04-20 06:47 | -37.85350 | 144.97901 | 7462 ft | 243 kts | 99° |
| 2026-04-20 06:47 | -37.85663 | 144.99991 | 7883 ft | 242 kts | 111° |
| 2026-04-20 06:47 | -37.86216 | 145.01983 | 8290 ft | 242 kts | 98° |
| 2026-04-20 06:48 | -37.86130 | 145.04117 | 8708 ft | 245 kts | 83° |
| 2026-04-20 06:48 | -37.85913 | 145.06268 | 9135 ft | 247 kts | 84° |
| 2026-04-20 06:48 | -37.85709 | 145.08406 | 9563 ft | 249 kts | 84° |
| 2026-04-20 06:48 | -37.85498 | 145.10581 | 10008 ft | 250 kts | 84° |
| 2026-04-20 06:49 | -37.85280 | 145.12775 | 10428 ft | 252 kts | 84° |
| 2026-04-20 06:49 | -37.85055 | 145.14980 | 10829 ft | 253 kts | 84° |
| 2026-04-20 06:49 | -37.84828 | 145.17195 | 11231 ft | 255 kts | 84° |
| 2026-04-20 06:49 | -37.84596 | 145.19425 | 11644 ft | 256 kts | 84° |
| 2026-04-20 06:50 | -37.84371 | 145.21664 | 12055 ft | 258 kts | 85° |
| 2026-04-20 06:50 | -37.84177 | 145.23938 | 12468 ft | 262 kts | 85° |
| 2026-04-20 06:50 | -37.83984 | 145.26240 | 12890 ft | 264 kts | 86° |
| 2026-04-20 06:50 | -37.83789 | 145.28531 | 13316 ft | 267 kts | 86° |
| 2026-04-20 06:51 | -37.83584 | 145.30875 | 13751 ft | 269 kts | 86° |
| 2026-04-20 06:51 | -37.83373 | 145.33241 | 14182 ft | 272 kts | 86° |
| 2026-04-20 06:51 | -37.83155 | 145.35623 | 14574 ft | 273 kts | 86° |
| 2026-04-20 06:51 | -37.82932 | 145.38013 | 14970 ft | 274 kts | 86° |
| 2026-04-20 06:52 | -37.82706 | 145.40404 | 15374 ft | 274 kts | 86° |
| 2026-04-20 06:52 | -37.82473 | 145.42804 | 15783 ft | 275 kts | 86° |
| 2026-04-20 06:52 | -37.82235 | 145.45200 | 16198 ft | 275 kts | 86° |
| 2026-04-20 06:52 | -37.81993 | 145.47596 | 16623 ft | 275 kts | 86° |
| 2026-04-20 06:53 | -37.81747 | 145.49987 | 17044 ft | 274 kts | 86° |
| 2026-04-20 06:53 | -37.81497 | 145.52374 | 17476 ft | 274 kts | 86° |
| 2026-04-20 06:53 | -37.81240 | 145.54761 | 17915 ft | 274 kts | 86° |
| 2026-04-20 06:53 | -37.80977 | 145.57141 | 18361 ft | 273 kts | 86° |
| 2026-04-20 06:54 | -37.80710 | 145.59512 | 18778 ft | 272 kts | 86° |
| 2026-04-20 06:54 | -37.80436 | 145.61880 | 19165 ft | 272 kts | 86° |
| 2026-04-20 06:54 | -37.80156 | 145.64234 | 19554 ft | 270 kts | 86° |
| 2026-04-20 06:54 | -37.79872 | 145.66582 | 19953 ft | 270 kts | 86° |
| 2026-04-20 06:55 | -37.79585 | 145.68891 | 20356 ft | 269 kts | 86° |
| 2026-04-20 06:55 | -37.79288 | 145.71225 | 20766 ft | 269 kts | 86° |
| 2026-04-20 06:55 | -37.78984 | 145.73589 | 20956 ft | 277 kts | 86° |
| 2026-04-20 06:55 | -37.78668 | 145.76041 | 21005 ft | 287 kts | 86° |
| 2026-04-20 06:56 | -37.78349 | 145.78565 | 21024 ft | 295 kts | 86° |
| 2026-04-20 06:56 | -37.78022 | 145.81142 | 21020 ft | 298 kts | 85° |
| 2026-04-20 06:56 | -37.77696 | 145.83747 | 21023 ft | 301 kts | 86° |
| 2026-04-20 06:56 | -37.77367 | 145.86367 | 21022 ft | 303 kts | 86° |
| 2026-04-20 06:57 | -37.77035 | 145.89002 | 21014 ft | 304 kts | 85° |
| 2026-04-20 06:57 | -37.76703 | 145.91641 | 21015 ft | 305 kts | 86° |
| 2026-04-20 06:57 | -37.76371 | 145.94286 | 21018 ft | 304 kts | 86° |
| 2026-04-20 06:57 | -37.76043 | 145.96898 | 21016 ft | 305 kts | 86° |
| 2026-04-20 06:58 | -37.75715 | 145.99535 | 21020 ft | 299 kts | 86° |
| 2026-04-20 06:58 | -37.75383 | 146.02089 | 21015 ft | 289 kts | 85° |
| 2026-04-20 06:58 | -37.75057 | 146.04566 | 21013 ft | 282 kts | 86° |
| 2026-04-20 06:58 | -37.75140 | 146.06954 | 21016 ft | 266 kts | 112° |
| 2026-04-20 06:59 | -37.75858 | 146.09056 | 21020 ft | 258 kts | 123° |
| 2026-04-20 06:59 | -37.76695 | 146.11057 | 21008 ft | 258 kts | 124° |
| 2026-04-20 06:59 | -37.77548 | 146.13052 | 21008 ft | 258 kts | 124° |
| 2026-04-20 06:59 | -37.78269 | 146.15130 | 20999 ft | 265 kts | 108° |
| 2026-04-20 07:00 | -37.78206 | 146.17496 | 21006 ft | 278 kts | 79° |
| 2026-04-20 07:00 | -37.77295 | 146.19643 | 21011 ft | 285 kts | 56° |
| 2026-04-20 07:00 | -37.76274 | 146.21760 | 21017 ft | 280 kts | 74° |
| 2026-04-20 07:00 | -37.75810 | 146.24113 | 21018 ft | 273 kts | 85° |
| 2026-04-20 07:01 | -37.75412 | 146.26467 | 21018 ft | 276 kts | 80° |
| 2026-04-20 07:01 | -37.74836 | 146.28794 | 21019 ft | 279 kts | 77° |
| 2026-04-20 07:01 | -37.74217 | 146.31119 | 21025 ft | 279 kts | 77° |
| 2026-04-20 07:01 | -37.73653 | 146.33531 | 21033 ft | 292 kts | 80° |
| 2026-04-20 07:02 | -37.73074 | 146.36024 | 21030 ft | 299 kts | 77° |
| 2026-04-20 07:02 | -37.72436 | 146.38556 | 21031 ft | 304 kts | 77° |
| 2026-04-20 07:02 | -37.71829 | 146.41115 | 21030 ft | 304 kts | 78° |
| 2026-04-20 07:02 | -37.71226 | 146.43628 | 21026 ft | 295 kts | 78° |
| 2026-04-20 07:03 | -37.70618 | 146.46071 | 21013 ft | 296 kts | 78° |
| 2026-04-20 07:03 | -37.70036 | 146.48543 | 21025 ft | 292 kts | 79° |
| 2026-04-20 07:03 | -37.69447 | 146.50994 | 21022 ft | 291 kts | 78° |
| 2026-04-20 07:03 | -37.68844 | 146.53430 | 21026 ft | 290 kts | 78° |
| 2026-04-20 07:04 | -37.68261 | 146.55868 | 21030 ft | 290 kts | 78° |
| 2026-04-20 07:04 | -37.67669 | 146.58303 | 21027 ft | 290 kts | 78° |
| 2026-04-20 07:04 | -37.67075 | 146.60734 | 21027 ft | 290 kts | 78° |
| 2026-04-20 07:04 | -37.66487 | 146.63168 | 21016 ft | 289 kts | 78° |
| 2026-04-20 07:05 | -37.65894 | 146.65594 | 21020 ft | 289 kts | 78° |
| 2026-04-20 07:05 | -37.65303 | 146.68018 | 21027 ft | 289 kts | 78° |
| 2026-04-20 07:05 | -37.64722 | 146.70406 | 21026 ft | 288 kts | 78° |
| 2026-04-20 07:05 | -37.64132 | 146.72822 | 21022 ft | 288 kts | 78° |
| 2026-04-20 07:06 | -37.63531 | 146.75273 | 21021 ft | 297 kts | 78° |
| 2026-04-20 07:06 | -37.62922 | 146.77782 | 21039 ft | 301 kts | 78° |
| 2026-04-20 07:06 | -37.62299 | 146.80310 | 21036 ft | 303 kts | 78° |
| 2026-04-20 07:06 | -37.61675 | 146.82853 | 21028 ft | 304 kts | 78° |
| 2026-04-20 07:07 | -37.61049 | 146.85411 | 21037 ft | 306 kts | 78° |
| 2026-04-20 07:07 | -37.60421 | 146.87968 | 21027 ft | 305 kts | 78° |
| 2026-04-20 07:07 | -37.59790 | 146.90516 | 21028 ft | 305 kts | 78° |
| 2026-04-20 07:07 | -37.59163 | 146.93075 | 21032 ft | 305 kts | 78° |
| 2026-04-20 07:08 | -37.58544 | 146.95592 | 21038 ft | 305 kts | 78° |
| 2026-04-20 07:08 | -37.57908 | 146.98148 | 21037 ft | 305 kts | 78° |
| 2026-04-20 07:08 | -37.57282 | 147.00699 | 21038 ft | 305 kts | 78° |
| 2026-04-20 07:08 | -37.56651 | 147.03249 | 21031 ft | 305 kts | 78° |
| 2026-04-20 07:09 | -37.56020 | 147.05793 | 21024 ft | 303 kts | 78° |
| 2026-04-20 07:09 | -37.55395 | 147.08328 | 21037 ft | 304 kts | 77° |
| 2026-04-20 07:09 | -37.54759 | 147.10862 | 21041 ft | 304 kts | 78° |
| 2026-04-20 07:09 | -37.54132 | 147.13409 | 21028 ft | 304 kts | 78° |
| 2026-04-20 07:10 | -37.53501 | 147.15951 | 21028 ft | 304 kts | 78° |
| 2026-04-20 07:10 | -37.52863 | 147.18497 | 21035 ft | 305 kts | 78° |
| 2026-04-20 07:10 | -37.52239 | 147.21009 | 21034 ft | 304 kts | 78° |
| 2026-04-20 07:10 | -37.51608 | 147.23549 | 21035 ft | 304 kts | 78° |
| 2026-04-20 07:11 | -37.50972 | 147.26090 | 21034 ft | 304 kts | 78° |
| 2026-04-20 07:11 | -37.50338 | 147.28627 | 21033 ft | 304 kts | 78° |
| 2026-04-20 07:11 | -37.49704 | 147.31163 | 21034 ft | 304 kts | 78° |
| 2026-04-20 07:11 | -37.49069 | 147.33698 | 21032 ft | 304 kts | 78° |
| 2026-04-20 07:12 | -37.48433 | 147.36232 | 21037 ft | 303 kts | 78° |
| 2026-04-20 07:12 | -37.47802 | 147.38752 | 21180 ft | 300 kts | 78° |
| 2026-04-20 07:12 | -37.47174 | 147.41248 | 21299 ft | 299 kts | 78° |
| 2026-04-20 07:12 | -37.46546 | 147.43754 | 21307 ft | 301 kts | 78° |
| 2026-04-20 07:13 | -37.45911 | 147.46271 | 21310 ft | 303 kts | 78° |
| 2026-04-20 07:13 | -37.45275 | 147.48801 | 21312 ft | 304 kts | 78° |
| 2026-04-20 07:13 | -37.44633 | 147.51299 | 21309 ft | 304 kts | 76° |
| 2026-04-20 07:13 | -37.43877 | 147.53796 | 21309 ft | 306 kts | 73° |
| 2026-04-20 07:14 | -37.43072 | 147.56281 | 21311 ft | 306 kts | 73° |
| 2026-04-20 07:14 | -37.42328 | 147.58780 | 21309 ft | 305 kts | 76° |
| 2026-04-20 07:14 | -37.41596 | 147.61286 | 21313 ft | 305 kts | 75° |
| 2026-04-20 07:14 | -37.40821 | 147.63775 | 21312 ft | 306 kts | 74° |
| 2026-04-20 07:15 | -37.40073 | 147.66277 | 21324 ft | 305 kts | 75° |
| 2026-04-20 07:15 | -37.39326 | 147.68776 | 21320 ft | 306 kts | 75° |
| 2026-04-20 07:15 | -37.38561 | 147.71271 | 21326 ft | 306 kts | 75° |
| 2026-04-20 07:15 | -37.37809 | 147.73773 | 21320 ft | 306 kts | 75° |
| 2026-04-20 07:16 | -37.37065 | 147.76232 | 21321 ft | 305 kts | 75° |
| 2026-04-20 07:16 | -37.36307 | 147.78721 | 21317 ft | 305 kts | 75° |
| 2026-04-20 07:16 | -37.35554 | 147.81209 | 21324 ft | 305 kts | 75° |
| 2026-04-20 07:16 | -37.34796 | 147.83701 | 21321 ft | 305 kts | 75° |
| 2026-04-20 07:17 | -37.34039 | 147.86191 | 21327 ft | 305 kts | 75° |
| 2026-04-20 07:17 | -37.33282 | 147.88678 | 21320 ft | 304 kts | 75° |
| 2026-04-20 07:17 | -37.32530 | 147.91154 | 21322 ft | 303 kts | 75° |
| 2026-04-20 07:17 | -37.31775 | 147.93627 | 21330 ft | 303 kts | 75° |
| 2026-04-20 07:18 | -37.31018 | 147.96103 | 21326 ft | 304 kts | 75° |
| 2026-04-20 07:18 | -37.30273 | 147.98550 | 21326 ft | 304 kts | 75° |
| 2026-04-20 07:18 | -37.29514 | 148.01034 | 21317 ft | 305 kts | 75° |
| 2026-04-20 07:18 | -37.28752 | 148.03517 | 21318 ft | 305 kts | 75° |
| 2026-04-20 07:19 | -37.27994 | 148.06005 | 21329 ft | 305 kts | 75° |
| 2026-04-20 07:19 | -37.27231 | 148.08485 | 21327 ft | 305 kts | 75° |
| 2026-04-20 07:19 | -37.26469 | 148.10969 | 21327 ft | 305 kts | 75° |
| 2026-04-20 07:19 | -37.25709 | 148.13453 | 21325 ft | 305 kts | 75° |
| 2026-04-20 07:20 | -37.24944 | 148.15936 | 21328 ft | 305 kts | 75° |
| 2026-04-20 07:20 | -37.24180 | 148.18421 | 21327 ft | 305 kts | 75° |
| 2026-04-20 07:20 | -37.23414 | 148.20910 | 21330 ft | 306 kts | 75° |
| 2026-04-20 07:20 | -37.22659 | 148.23361 | 21326 ft | 305 kts | 75° |
| 2026-04-20 07:21 | -37.21892 | 148.25847 | 21331 ft | 305 kts | 75° |
| 2026-04-20 07:21 | -37.21127 | 148.28329 | 21329 ft | 305 kts | 75° |
| 2026-04-20 07:21 | -37.20362 | 148.30805 | 21330 ft | 305 kts | 75° |
| 2026-04-20 07:21 | -37.19595 | 148.33285 | 21329 ft | 305 kts | 75° |
| 2026-04-20 07:22 | -37.18828 | 148.35766 | 21327 ft | 305 kts | 75° |
| 2026-04-20 07:22 | -37.18059 | 148.38249 | 21332 ft | 306 kts | 75° |
| 2026-04-20 07:22 | -37.17287 | 148.40734 | 21330 ft | 305 kts | 74° |
| 2026-04-20 07:22 | -37.16518 | 148.43214 | 21331 ft | 305 kts | 75° |
| 2026-04-20 07:23 | -37.15760 | 148.45661 | 21331 ft | 305 kts | 74° |
| 2026-04-20 07:23 | -37.14987 | 148.48139 | 21339 ft | 305 kts | 74° |
| 2026-04-20 07:23 | -37.14219 | 148.50614 | 21323 ft | 304 kts | 75° |
| 2026-04-20 07:23 | -37.13452 | 148.53081 | 21335 ft | 305 kts | 74° |
| 2026-04-20 07:24 | -37.12678 | 148.55554 | 21328 ft | 305 kts | 74° |
| 2026-04-20 07:24 | -37.11910 | 148.58025 | 21329 ft | 304 kts | 74° |
| 2026-04-20 07:24 | -37.11140 | 148.60490 | 21330 ft | 303 kts | 74° |
| 2026-04-20 07:24 | -37.10371 | 148.62952 | 21330 ft | 303 kts | 75° |
| 2026-04-20 07:25 | -37.09602 | 148.65415 | 21331 ft | 304 kts | 74° |
| 2026-04-20 07:25 | -37.08828 | 148.67882 | 21327 ft | 305 kts | 74° |
| 2026-04-20 07:25 | -37.08065 | 148.70321 | 21330 ft | 305 kts | 74° |
| 2026-04-20 07:25 | -37.07291 | 148.72787 | 21330 ft | 305 kts | 74° |
| 2026-04-20 07:26 | -37.06516 | 148.75259 | 21330 ft | 304 kts | 74° |
| 2026-04-20 07:26 | -37.05744 | 148.77722 | 21334 ft | 304 kts | 74° |
| 2026-04-20 07:26 | -37.04968 | 148.80184 | 21331 ft | 304 kts | 74° |
| 2026-04-20 07:26 | -37.04197 | 148.82643 | 21046 ft | 293 kts | 73° |
| 2026-04-20 07:27 | -37.03461 | 148.84903 | 20642 ft | 274 kts | 74° |
| 2026-04-20 07:27 | -37.02781 | 148.87129 | 20242 ft | 273 kts | 75° |
| 2026-04-20 07:27 | -37.02095 | 148.89308 | 19858 ft | 272 kts | 73° |
| 2026-04-20 07:27 | -37.01392 | 148.91503 | 19473 ft | 271 kts | 74° |
| 2026-04-20 07:28 | -37.00707 | 148.93699 | 19080 ft | 271 kts | 74° |
| 2026-04-20 07:28 | -37.00013 | 148.95888 | 18722 ft | 271 kts | 73° |
| 2026-04-20 07:28 | -36.99319 | 148.98074 | 18305 ft | 270 kts | 73° |
| 2026-04-20 07:28 | -36.98632 | 149.00255 | 17886 ft | 269 kts | 74° |
| 2026-04-20 07:29 | -36.97944 | 149.02425 | 17467 ft | 268 kts | 73° |
| 2026-04-20 07:29 | -36.97256 | 149.04587 | 17073 ft | 267 kts | 74° |
| 2026-04-20 07:29 | -36.96575 | 149.06741 | 16665 ft | 266 kts | 74° |
| 2026-04-20 07:29 | -36.95902 | 149.08861 | 16271 ft | 266 kts | 74° |
| 2026-04-20 07:30 | -36.95220 | 149.11006 | 15874 ft | 265 kts | 73° |
| 2026-04-20 07:30 | -36.94541 | 149.13143 | 15484 ft | 264 kts | 73° |
| 2026-04-20 07:30 | -36.93862 | 149.15277 | 15101 ft | 264 kts | 73° |
| 2026-04-20 07:30 | -36.93184 | 149.17406 | 14720 ft | 263 kts | 73° |
| 2026-04-20 07:31 | -36.92508 | 149.19529 | 14348 ft | 262 kts | 73° |
| 2026-04-20 07:31 | -36.91833 | 149.21640 | 13953 ft | 261 kts | 73° |
| 2026-04-20 07:31 | -36.91164 | 149.23739 | 13536 ft | 259 kts | 73° |
| 2026-04-20 07:31 | -36.90506 | 149.25798 | 13374 ft | 250 kts | 73° |
| 2026-04-20 07:32 | -36.89872 | 149.27790 | 13345 ft | 244 kts | 73° |
| 2026-04-20 07:32 | -36.89248 | 149.29740 | 13342 ft | 240 kts | 73° |
| 2026-04-20 07:32 | -36.88639 | 149.31644 | 13333 ft | 239 kts | 74° |
| 2026-04-20 07:32 | -36.88024 | 149.33564 | 13334 ft | 238 kts | 73° |
| 2026-04-20 07:33 | -36.87410 | 149.35479 | 13332 ft | 238 kts | 74° |
| 2026-04-20 07:33 | -36.86798 | 149.37394 | 13325 ft | 238 kts | 74° |
| 2026-04-20 07:33 | -36.86174 | 149.39339 | 13106 ft | 244 kts | 73° |
| 2026-04-20 07:33 | -36.85537 | 149.41313 | 12875 ft | 246 kts | 73° |
| 2026-04-20 07:34 | -36.84901 | 149.43295 | 12646 ft | 246 kts | 73° |
| 2026-04-20 07:34 | -36.84267 | 149.45271 | 12419 ft | 245 kts | 73° |
| 2026-04-20 07:34 | -36.83632 | 149.47242 | 12195 ft | 244 kts | 73° |
| 2026-04-20 07:35 | -36.82378 | 149.51135 | 11757 ft | 243 kts | 72° |
| 2026-04-20 07:35 | -36.81750 | 149.53085 | 11537 ft | 242 kts | 72° |
| 2026-04-20 07:35 | -36.81124 | 149.55023 | 11319 ft | 241 kts | 72° |
| 2026-04-20 07:35 | -36.80498 | 149.56957 | 11102 ft | 240 kts | 72° |
| 2026-04-20 07:36 | -36.80087 | 149.58234 | 10954 ft | 239 kts | 72° |
| 2026-04-20 07:36 | -36.79258 | 149.60801 | 10673 ft | 238 kts | 72° |
| 2026-04-20 07:36 | -36.78848 | 149.62071 | 10531 ft | 238 kts | 72° |
| 2026-04-20 07:36 | -36.78029 | 149.64598 | 10246 ft | 236 kts | 72° |
| 2026-04-20 07:37 | -36.77413 | 149.66496 | 10015 ft | 236 kts | 72° |
| 2026-04-20 07:37 | -36.76799 | 149.68391 | 9777 ft | 235 kts | 72° |
| 2026-04-20 07:37 | -36.76189 | 149.70277 | 9543 ft | 234 kts | 72° |
| 2026-04-20 07:37 | -36.75579 | 149.72153 | 9304 ft | 233 kts | 72° |
| 2026-04-20 07:38 | -36.75177 | 149.73391 | 9160 ft | 232 kts | 72° |
| 2026-04-20 07:38 | -36.74573 | 149.75253 | 8925 ft | 231 kts | 72° |
| 2026-04-20 07:38 | -36.73970 | 149.77107 | 8698 ft | 231 kts | 72° |
| 2026-04-20 07:38 | -36.73370 | 149.78954 | 8472 ft | 229 kts | 72° |
| 2026-04-20 07:39 | -36.72577 | 149.81389 | 8172 ft | 228 kts | 72° |
| 2026-04-20 07:39 | -36.71980 | 149.83218 | 7951 ft | 228 kts | 72° |
| 2026-04-20 07:39 | -36.71387 | 149.85041 | 7727 ft | 227 kts | 72° |
| 2026-04-20 07:39 | -36.70995 | 149.86244 | 7580 ft | 225 kts | 72° |
| 2026-04-20 07:40 | -36.70406 | 149.88050 | 7362 ft | 225 kts | 72° |
| 2026-04-20 07:40 | -36.69816 | 149.89855 | 7153 ft | 225 kts | 73° |
| 2026-04-20 07:40 | -36.69225 | 149.91667 | 6861 ft | 227 kts | 73° |
| 2026-04-20 07:40 | -36.68626 | 149.93488 | 6537 ft | 227 kts | 73° |
| 2026-04-20 07:41 | -36.68411 | 149.95941 | 6099 ft | 213 kts | 111° |
| 2026-04-20 07:41 | -36.68880 | 149.97009 | 5883 ft | 206 kts | 135° |
| 2026-04-20 07:41 | -36.70074 | 149.97883 | 5556 ft | 200 kts | 169° |
| 2026-04-20 07:41 | -36.71389 | 149.98034 | 5233 ft | 175 kts | 166° |
| 2026-04-20 07:42 | -36.72421 | 149.98730 | 4901 ft | 171 kts | 146° |
| 2026-04-20 07:42 | -36.73358 | 149.99637 | 4561 ft | 170 kts | 145° |
| 2026-04-20 07:42 | -36.74312 | 150.00503 | 4224 ft | 170 kts | 147° |
| 2026-04-20 07:42 | -36.75269 | 150.01365 | 3889 ft | 170 kts | 146° |
| 2026-04-20 07:43 | -36.76312 | 150.01968 | 3566 ft | 166 kts | 177° |
| 2026-04-20 07:43 | -36.77632 | 150.01195 | 3281 ft | 163 kts | 221° |
| 2026-04-20 07:43 | -36.78226 | 150.00581 | 3103 ft | 165 kts | 214° |
| 2026-04-20 07:43 | -36.79183 | 149.99803 | 2836 ft | 164 kts | 211° |
| 2026-04-20 07:44 | -36.80112 | 149.99028 | 2596 ft | 162 kts | 212° |
| 2026-04-20 07:44 | -36.81049 | 149.98236 | 2343 ft | 163 kts | 211° |
| 2026-04-20 07:44 | -36.81967 | 149.97467 | 2090 ft | 148 kts | 211° |
| 2026-04-20 07:44 | -36.82760 | 149.96812 | 1826 ft | 128 kts | 210° |
| 2026-04-20 07:45 | -36.83548 | 149.96159 | 1574 ft | 147 kts | 211° |
| 2026-04-20 07:45 | -36.84411 | 149.95419 | 1318 ft | 152 kts | 212° |
| 2026-04-20 07:45 | -36.85232 | 149.94714 | 1209 ft | 143 kts | 211° |
| 2026-04-20 07:45 | -36.86068 | 149.93990 | 1088 ft | 150 kts | 212° |
| 2026-04-20 07:46 | -36.86932 | 149.93264 | 894 ft | 152 kts | 210° |
| 2026-04-20 07:46 | -36.87813 | 149.92559 | 692 ft | 145 kts | 209° |
| 2026-04-20 07:46 | -36.88596 | 149.91898 | 462 ft | 129 kts | 210° |
| 2026-04-20 07:46 | -36.89369 | 149.91262 | 246 ft | 130 kts | 213° |
| 2026-04-20 07:47 | -36.90051 | 149.90692 | 42 ft | 106 kts | 211° |
| 2026-04-20 07:47 | -36.90490 | 149.90325 | 14 ft | 17 kts | 215° |
| 2026-04-20 07:47 | -36.90628 | 149.90211 | 14 ft | 30 kts | 216° |
| 2026-04-20 07:47 | -36.90827 | 149.90051 | 12 ft | 16 kts | 207° |
| 2026-04-20 07:48 | -36.90883 | 149.90077 | 12 ft | 11 kts | 118° |
| 2026-04-20 07:48 | -36.90901 | 149.90164 | 12 ft | 12 kts | 61° |
| 2026-04-20 07:48 | -36.90896 | 149.90194 | 12 ft | 2 kts | 136° |
| 2026-04-20 07:48 | -36.90904 | 149.90195 | 12 ft | 1 kts | 204° |
| 2026-04-20 07:49 | -36.90910 | 149.90196 | 12 ft | 0 kts | 153° |
| 2026-04-20 07:49 | -36.90912 | 149.90198 | 12 ft | 0 kts | 153° |
| 2026-04-20 07:49 | -36.90911 | 149.90197 | 12 ft | 1 kts | 153° |